Terminal Aerodrome Forecast
Issued by NWS

Current Version | Previous Version | Text Only | Print | Product List | Glossary Off
Versions: 1 2 3 4 5 6 7 8 9 10 11 12 13 14 15 16 17 18 19 20 21 22 23 24 25 26

000
FTUS41 KRLX 141100
TAFCKB
TAF
KCKB 141125Z 1412/1512 19011G16KT P6SM BKN250
     FM141800 21016G24KT P6SM OVC150
     FM141900 21014G21KT P6SM VCTS SCT050CB OVC120
     FM142000 21013G19KT P6SM SHRA VCTS OVC050CB
     FM150000 19010KT P6SM VCTS OVC040CB
     FM150200 18008KT P6SM SHRA VCTS OVC025CB
     FM150800 20008KT P6SM SHRA OVC015
     FM151100 24009KT P6SM SHRA OVC015=

USA.gov is the U.S. government's official web portal to all federal, state and local government web resources and services.